sensor_id;sensor_type;location;lat;lon;timestamp;temperature;humidity
6210;DHT22;3138;52.550;13.148;2022-08-25T00:00:20;18.90;99.90
6210;DHT22;3138;52.550;13.148;2022-08-25T00:02:47;18.80;99.90
6210;DHT22;3138;52.550;13.148;2022-08-25T00:05:14;18.80;99.90
6210;DHT22;3138;52.550;13.148;2022-08-25T00:07:41;18.70;99.90
6210;DHT22;3138;52.550;13.148;2022-08-25T00:10:09;18.70;99.90
6210;DHT22;3138;52.550;13.148;2022-08-25T00:12:36;18.70;99.90
6210;DHT22;3138;52.550;13.148;2022-08-25T00:15:03;18.70;99.90
6210;DHT22;3138;52.550;13.148;2022-08-25T00:17:32;18.70;99.90
6210;DHT22;3138;52.550;13.148;2022-08-25T00:19:58;18.70;99.90
6210;DHT22;3138;52.550;13.148;2022-08-25T00:22:25;18.50;99.90
6210;DHT22;3138;52.550;13.148;2022-08-25T00:24:52;18.50;99.90
6210;DHT22;3138;52.550;13.148;2022-08-25T00:27:19;18.50;99.90
6210;DHT22;3138;52.550;13.148;2022-08-25T00:29:46;18.40;99.90
6210;DHT22;3138;52.550;13.148;2022-08-25T00:32:13;18.40;99.90
6210;DHT22;3138;52.550;13.148;2022-08-25T00:34:41;18.40;99.90
6210;DHT22;3138;52.550;13.148;2022-08-25T00:37:08;18.40;99.90
6210;DHT22;3138;52.550;13.148;2022-08-25T00:39:36;18.40;99.90
6210;DHT22;3138;52.550;13.148;2022-08-25T00:42:04;18.30;99.90
6210;DHT22;3138;52.550;13.148;2022-08-25T00:44:32;18.30;99.90
6210;DHT22;3138;52.550;13.148;2022-08-25T00:47:00;18.30;99.90
6210;DHT22;3138;52.550;13.148;2022-08-25T00:49:31;18.40;99.90
6210;DHT22;3138;52.550;13.148;2022-08-25T00:52:03;18.40;99.90
6210;DHT22;3138;52.550;13.148;2022-08-25T00:54:34;18.40;99.90
6210;DHT22;3138;52.550;13.148;2022-08-25T00:57:04;18.40;99.90
6210;DHT22;3138;52.550;13.148;2022-08-25T00:59:31;18.30;99.90
6210;DHT22;3138;52.550;13.148;2022-08-25T01:01:59;18.30;99.90
6210;DHT22;3138;52.550;13.148;2022-08-25T01:04:26;18.30;99.90
6210;DHT22;3138;52.550;13.148;2022-08-25T01:06:53;18.20;99.90
6210;DHT22;3138;52.550;13.148;2022-08-25T01:09:22;18.20;99.90
6210;DHT22;3138;52.550;13.148;2022-08-25T01:11:49;18.20;99.90
6210;DHT22;3138;52.550;13.148;2022-08-25T01:14:18;18.10;99.90
6210;DHT22;3138;52.550;13.148;2022-08-25T01:16:45;18.00;99.90
6210;DHT22;3138;52.550;13.148;2022-08-25T01:19:14;17.90;99.90
6210;DHT22;3138;52.550;13.148;2022-08-25T01:21:44;17.80;99.90
6210;DHT22;3138;52.550;13.148;2022-08-25T01:24:19;17.80;99.90
6210;DHT22;3138;52.550;13.148;2022-08-25T01:26:48;17.80;99.90
6210;DHT22;3138;52.550;13.148;2022-08-25T01:29:15;17.70;99.90
6210;DHT22;3138;52.550;13.148;2022-08-25T01:31:51;17.70;99.90
6210;DHT22;3138;52.550;13.148;2022-08-25T01:34:19;17.60;99.90
6210;DHT22;3138;52.550;13.148;2022-08-25T01:36:47;17.70;99.90
6210;DHT22;3138;52.550;13.148;2022-08-25T01:39:15;17.60;99.90
6210;DHT22;3138;52.550;13.148;2022-08-25T01:41:58;17.70;99.90
6210;DHT22;3138;52.550;13.148;2022-08-25T01:44:29;17.70;99.90
6210;DHT22;3138;52.550;13.148;2022-08-25T01:46:56;17.70;99.90
6210;DHT22;3138;52.550;13.148;2022-08-25T01:49:23;17.70;99.90
6210;DHT22;3138;52.550;13.148;2022-08-25T01:51:55;17.60;99.90
6210;DHT22;3138;52.550;13.148;2022-08-25T01:54:22;17.70;99.90
6210;DHT22;3138;52.550;13.148;2022-08-25T01:56:49;17.60;99.90
6210;DHT22;3138;52.550;13.148;2022-08-25T01:59:17;17.60;99.90
6210;DHT22;3138;52.550;13.148;2022-08-25T02:01:45;17.60;99.90
6210;DHT22;3138;52.550;13.148;2022-08-25T02:04:12;17.50;99.90
6210;DHT22;3138;52.550;13.148;2022-08-25T02:06:38;17.60;99.90
6210;DHT22;3138;52.550;13.148;2022-08-25T02:09:09;17.60;99.90
6210;DHT22;3138;52.550;13.148;2022-08-25T02:11:39;17.50;99.90
6210;DHT22;3138;52.550;13.148;2022-08-25T02:14:07;17.60;99.90
6210;DHT22;3138;52.550;13.148;2022-08-25T02:16:37;17.50;99.90
6210;DHT22;3138;52.550;13.148;2022-08-25T02:19:05;17.50;99.90
6210;DHT22;3138;52.550;13.148;2022-08-25T02:21:32;17.50;99.90
6210;DHT22;3138;52.550;13.148;2022-08-25T02:24:00;17.40;99.90
6210;DHT22;3138;52.550;13.148;2022-08-25T02:26:28;17.40;99.90
6210;DHT22;3138;52.550;13.148;2022-08-25T02:28:56;17.30;99.90
6210;DHT22;3138;52.550;13.148;2022-08-25T02:31:23;17.30;99.90
6210;DHT22;3138;52.550;13.148;2022-08-25T02:33:51;17.30;99.90
6210;DHT22;3138;52.550;13.148;2022-08-25T02:36:18;17.40;99.90
6210;DHT22;3138;52.550;13.148;2022-08-25T02:38:45;17.30;99.90
6210;DHT22;3138;52.550;13.148;2022-08-25T02:41:15;17.30;99.90
6210;DHT22;3138;52.550;13.148;2022-08-25T02:43:46;17.30;99.90
6210;DHT22;3138;52.550;13.148;2022-08-25T02:46:14;17.30;99.90
6210;DHT22;3138;52.550;13.148;2022-08-25T02:48:41;17.20;99.90
6210;DHT22;3138;52.550;13.148;2022-08-25T02:51:09;17.10;99.90
6210;DHT22;3138;52.550;13.148;2022-08-25T02:53:37;17.30;99.90
6210;DHT22;3138;52.550;13.148;2022-08-25T02:56:06;17.30;99.90
6210;DHT22;3138;52.550;13.148;2022-08-25T02:58:33;17.10;99.90
6210;DHT22;3138;52.550;13.148;2022-08-25T03:01:01;17.10;99.90
6210;DHT22;3138;52.550;13.148;2022-08-25T03:03:28;17.20;99.90
6210;DHT22;3138;52.550;13.148;2022-08-25T03:05:55;17.20;99.90
6210;DHT22;3138;52.550;13.148;2022-08-25T03:08:23;17.30;99.90
6210;DHT22;3138;52.550;13.148;2022-08-25T03:10:50;17.20;99.90
6210;DHT22;3138;52.550;13.148;2022-08-25T03:13:17;17.20;99.90
6210;DHT22;3138;52.550;13.148;2022-08-25T03:15:44;17.20;99.90
6210;DHT22;3138;52.550;13.148;2022-08-25T03:18:12;17.20;99.90
6210;DHT22;3138;52.550;13.148;2022-08-25T03:20:40;17.10;99.90
6210;DHT22;3138;52.550;13.148;2022-08-25T03:23:07;17.10;99.90
6210;DHT22;3138;52.550;13.148;2022-08-25T03:25:34;17.10;99.90
6210;DHT22;3138;52.550;13.148;2022-08-25T03:28:18;17.10;99.90
6210;DHT22;3138;52.550;13.148;2022-08-25T03:30:45;17.10;99.90
6210;DHT22;3138;52.550;13.148;2022-08-25T03:33:14;17.10;99.90
6210;DHT22;3138;52.550;13.148;2022-08-25T03:35:40;17.10;99.90
6210;DHT22;3138;52.550;13.148;2022-08-25T03:38:07;17.10;99.90
6210;DHT22;3138;52.550;13.148;2022-08-25T03:40:35;17.10;99.90
6210;DHT22;3138;52.550;13.148;2022-08-25T03:43:03;17.10;99.90
6210;DHT22;3138;52.550;13.148;2022-08-25T03:45:30;17.10;99.90
6210;DHT22;3138;52.550;13.148;2022-08-25T03:47:57;17.10;99.90
6210;DHT22;3138;52.550;13.148;2022-08-25T03:50:25;17.10;99.90
6210;DHT22;3138;52.550;13.148;2022-08-25T03:52:53;17.10;99.90
6210;DHT22;3138;52.550;13.148;2022-08-25T03:55:22;17.20;99.90
6210;DHT22;3138;52.550;13.148;2022-08-25T03:57:49;17.20;99.90
6210;DHT22;3138;52.550;13.148;2022-08-25T04:00:16;17.20;99.90
6210;DHT22;3138;52.550;13.148;2022-08-25T04:02:43;17.30;99.90
6210;DHT22;3138;52.550;13.148;2022-08-25T04:07:41;17.30;99.90
6210;DHT22;3138;52.550;13.148;2022-08-25T04:10:09;17.30;99.90
6210;DHT22;3138;52.550;13.148;2022-08-25T04:12:37;17.40;99.90
6210;DHT22;3138;52.550;13.148;2022-08-25T04:15:05;17.40;99.90
6210;DHT22;3138;52.550;13.148;2022-08-25T04:17:35;17.40;99.90
6210;DHT22;3138;52.550;13.148;2022-08-25T04:20:03;17.40;99.90
6210;DHT22;3138;52.550;13.148;2022-08-25T04:22:30;17.50;99.90
6210;DHT22;3138;52.550;13.148;2022-08-25T04:24:59;17.50;99.90
6210;DHT22;3138;52.550;13.148;2022-08-25T04:27:25;17.50;99.90
6210;DHT22;3138;52.550;13.148;2022-08-25T04:29:52;17.50;99.90
6210;DHT22;3138;52.550;13.148;2022-08-25T04:32:19;17.50;99.90
6210;DHT22;3138;52.550;13.148;2022-08-25T04:34:46;17.60;99.90
6210;DHT22;3138;52.550;13.148;2022-08-25T04:37:13;17.60;99.90
6210;DHT22;3138;52.550;13.148;2022-08-25T04:39:40;17.60;99.90
6210;DHT22;3138;52.550;13.148;2022-08-25T04:42:08;17.60;99.90
6210;DHT22;3138;52.550;13.148;2022-08-25T04:44:35;17.70;99.90
6210;DHT22;3138;52.550;13.148;2022-08-25T04:47:03;17.70;99.90
6210;DHT22;3138;52.550;13.148;2022-08-25T04:49:30;17.70;99.90
6210;DHT22;3138;52.550;13.148;2022-08-25T04:51:57;17.70;99.90
6210;DHT22;3138;52.550;13.148;2022-08-25T04:54:24;17.70;99.90
6210;DHT22;3138;52.550;13.148;2022-08-25T04:56:52;17.70;99.90
6210;DHT22;3138;52.550;13.148;2022-08-25T04:59:20;17.70;99.90
6210;DHT22;3138;52.550;13.148;2022-08-25T05:01:47;17.70;99.90
6210;DHT22;3138;52.550;13.148;2022-08-25T05:04:15;17.70;99.90
6210;DHT22;3138;52.550;13.148;2022-08-25T05:06:42;17.70;99.90
6210;DHT22;3138;52.550;13.148;2022-08-25T05:09:09;17.70;99.90
6210;DHT22;3138;52.550;13.148;2022-08-25T05:11:36;17.70;99.90
6210;DHT22;3138;52.550;13.148;2022-08-25T05:14:04;17.70;99.90
6210;DHT22;3138;52.550;13.148;2022-08-25T05:16:37;17.80;99.90
6210;DHT22;3138;52.550;13.148;2022-08-25T05:19:04;17.80;99.90
6210;DHT22;3138;52.550;13.148;2022-08-25T05:21:31;17.90;99.90
6210;DHT22;3138;52.550;13.148;2022-08-25T05:23:59;17.90;99.90
6210;DHT22;3138;52.550;13.148;2022-08-25T05:26:28;17.90;99.90
6210;DHT22;3138;52.550;13.148;2022-08-25T05:28:57;17.90;99.90
6210;DHT22;3138;52.550;13.148;2022-08-25T05:31:24;17.80;99.90
6210;DHT22;3138;52.550;13.148;2022-08-25T05:33:53;17.90;99.90
6210;DHT22;3138;52.550;13.148;2022-08-25T05:36:22;17.80;99.90
6210;DHT22;3138;52.550;13.148;2022-08-25T05:38:49;17.90;99.90
6210;DHT22;3138;52.550;13.148;2022-08-25T05:41:18;17.90;99.90
6210;DHT22;3138;52.550;13.148;2022-08-25T05:43:46;17.90;99.90
6210;DHT22;3138;52.550;13.148;2022-08-25T05:46:14;17.90;99.90
6210;DHT22;3138;52.550;13.148;2022-08-25T05:48:41;18.00;99.90
6210;DHT22;3138;52.550;13.148;2022-08-25T05:51:10;18.10;99.90
6210;DHT22;3138;52.550;13.148;2022-08-25T05:53:38;18.10;99.90
6210;DHT22;3138;52.550;13.148;2022-08-25T05:56:06;18.10;99.90
6210;DHT22;3138;52.550;13.148;2022-08-25T05:58:33;18.20;99.90
6210;DHT22;3138;52.550;13.148;2022-08-25T06:01:00;18.20;99.90
6210;DHT22;3138;52.550;13.148;2022-08-25T06:03:47;18.10;99.90
6210;DHT22;3138;52.550;13.148;2022-08-25T06:06:15;18.20;99.90
6210;DHT22;3138;52.550;13.148;2022-08-25T06:08:42;18.20;99.90
6210;DHT22;3138;52.550;13.148;2022-08-25T06:11:09;18.20;99.90
6210;DHT22;3138;52.550;13.148;2022-08-25T06:13:37;18.20;99.90
6210;DHT22;3138;52.550;13.148;2022-08-25T06:16:04;18.30;99.90
6210;DHT22;3138;52.550;13.148;2022-08-25T06:18:31;18.40;99.90
6210;DHT22;3138;52.550;13.148;2022-08-25T06:20:57;18.40;99.90
6210;DHT22;3138;52.550;13.148;2022-08-25T06:23:26;18.50;99.90
6210;DHT22;3138;52.550;13.148;2022-08-25T06:25:53;18.50;99.90
6210;DHT22;3138;52.550;13.148;2022-08-25T06:28:20;18.60;99.90
6210;DHT22;3138;52.550;13.148;2022-08-25T06:30:47;18.60;99.90
6210;DHT22;3138;52.550;13.148;2022-08-25T06:33:14;18.60;99.90
6210;DHT22;3138;52.550;13.148;2022-08-25T06:35:41;18.60;99.90
6210;DHT22;3138;52.550;13.148;2022-08-25T06:38:09;18.80;99.90
6210;DHT22;3138;52.550;13.148;2022-08-25T06:40:37;18.80;99.90
6210;DHT22;3138;52.550;13.148;2022-08-25T06:43:04;18.80;99.90
6210;DHT22;3138;52.550;13.148;2022-08-25T06:45:33;18.90;99.90
6210;DHT22;3138;52.550;13.148;2022-08-25T06:48:00;18.90;99.90
6210;DHT22;3138;52.550;13.148;2022-08-25T06:50:27;19.00;99.90
6210;DHT22;3138;52.550;13.148;2022-08-25T06:52:53;19.00;99.90
6210;DHT22;3138;52.550;13.148;2022-08-25T06:55:21;19.00;99.90
6210;DHT22;3138;52.550;13.148;2022-08-25T06:57:51;19.00;99.90
6210;DHT22;3138;52.550;13.148;2022-08-25T07:00:18;19.00;99.90
6210;DHT22;3138;52.550;13.148;2022-08-25T07:02:45;19.10;99.90
6210;DHT22;3138;52.550;13.148;2022-08-25T07:05:12;19.20;99.90
6210;DHT22;3138;52.550;13.148;2022-08-25T07:07:39;19.10;99.90
6210;DHT22;3138;52.550;13.148;2022-08-25T07:10:07;19.10;99.90
6210;DHT22;3138;52.550;13.148;2022-08-25T07:12:34;19.10;99.90
6210;DHT22;3138;52.550;13.148;2022-08-25T07:15:03;19.20;99.90
6210;DHT22;3138;52.550;13.148;2022-08-25T07:17:30;19.20;99.90
6210;DHT22;3138;52.550;13.148;2022-08-25T07:19:57;19.30;99.90
6210;DHT22;3138;52.550;13.148;2022-08-25T07:22:23;19.30;99.90
6210;DHT22;3138;52.550;13.148;2022-08-25T07:24:50;19.40;99.90
6210;DHT22;3138;52.550;13.148;2022-08-25T07:27:17;19.40;99.90
6210;DHT22;3138;52.550;13.148;2022-08-25T07:29:44;19.40;99.90
6210;DHT22;3138;52.550;13.148;2022-08-25T07:32:12;19.50;99.90
6210;DHT22;3138;52.550;13.148;2022-08-25T07:34:39;19.60;99.90
6210;DHT22;3138;52.550;13.148;2022-08-25T07:37:23;19.70;99.90
6210;DHT22;3138;52.550;13.148;2022-08-25T07:39:50;19.80;99.90
6210;DHT22;3138;52.550;13.148;2022-08-25T07:42:16;19.90;99.90
6210;DHT22;3138;52.550;13.148;2022-08-25T07:44:43;20.10;99.90
6210;DHT22;3138;52.550;13.148;2022-08-25T07:47:11;20.40;99.90
6210;DHT22;3138;52.550;13.148;2022-08-25T07:49:40;20.60;99.90
6210;DHT22;3138;52.550;13.148;2022-08-25T07:52:07;20.80;99.90
6210;DHT22;3138;52.550;13.148;2022-08-25T07:54:34;20.90;99.90
6210;DHT22;3138;52.550;13.148;2022-08-25T07:57:01;20.90;99.90
6210;DHT22;3138;52.550;13.148;2022-08-25T07:59:28;20.80;99.90
6210;DHT22;3138;52.550;13.148;2022-08-25T08:01:55;20.80;99.90
6210;DHT22;3138;52.550;13.148;2022-08-25T08:04:23;20.80;99.90
6210;DHT22;3138;52.550;13.148;2022-08-25T08:06:50;20.80;99.90
6210;DHT22;3138;52.550;13.148;2022-08-25T08:09:17;20.80;99.90
6210;DHT22;3138;52.550;13.148;2022-08-25T08:11:44;20.70;99.90
6210;DHT22;3138;52.550;13.148;2022-08-25T08:14:11;20.70;99.90
6210;DHT22;3138;52.550;13.148;2022-08-25T08:16:37;20.90;99.90
6210;DHT22;3138;52.550;13.148;2022-08-25T08:19:05;21.00;99.90
6210;DHT22;3138;52.550;13.148;2022-08-25T08:21:34;21.10;99.90
6210;DHT22;3138;52.550;13.148;2022-08-25T08:24:02;21.40;99.90
6210;DHT22;3138;52.550;13.148;2022-08-25T08:26:29;21.40;99.90
6210;DHT22;3138;52.550;13.148;2022-08-25T08:28:57;21.40;99.90
6210;DHT22;3138;52.550;13.148;2022-08-25T08:31:25;21.50;99.90
6210;DHT22;3138;52.550;13.148;2022-08-25T08:33:54;21.60;99.90
6210;DHT22;3138;52.550;13.148;2022-08-25T08:36:22;21.70;99.90
6210;DHT22;3138;52.550;13.148;2022-08-25T08:38:51;21.80;99.90
6210;DHT22;3138;52.550;13.148;2022-08-25T08:41:45;22.10;99.90
6210;DHT22;3138;52.550;13.148;2022-08-25T08:44:40;22.00;99.90
6210;DHT22;3138;52.550;13.148;2022-08-25T08:47:13;22.10;99.90
6210;DHT22;3138;52.550;13.148;2022-08-25T08:49:48;22.10;99.90
6210;DHT22;3138;52.550;13.148;2022-08-25T08:52:27;22.30;99.90
6210;DHT22;3138;52.550;13.148;2022-08-25T08:55:03;22.50;99.90
6210;DHT22;3138;52.550;13.148;2022-08-25T08:57:37;22.50;99.90
6210;DHT22;3138;52.550;13.148;2022-08-25T09:00:08;22.60;99.90
6210;DHT22;3138;52.550;13.148;2022-08-25T09:02:39;22.60;99.90
6210;DHT22;3138;52.550;13.148;2022-08-25T09:05:10;23.00;99.90
6210;DHT22;3138;52.550;13.148;2022-08-25T09:07:44;23.10;99.90
6210;DHT22;3138;52.550;13.148;2022-08-25T09:10:14;23.30;99.90
6210;DHT22;3138;52.550;13.148;2022-08-25T09:12:45;23.60;99.90
6210;DHT22;3138;52.550;13.148;2022-08-25T09:15:21;24.20;99.90
6210;DHT22;3138;52.550;13.148;2022-08-25T09:18:19;23.80;99.90
6210;DHT22;3138;52.550;13.148;2022-08-25T09:20:56;24.10;99.90
6210;DHT22;3138;52.550;13.148;2022-08-25T09:23:32;24.00;99.90
6210;DHT22;3138;52.550;13.148;2022-08-25T09:26:12;24.00;99.90
6210;DHT22;3138;52.550;13.148;2022-08-25T09:28:48;24.30;99.90
6210;DHT22;3138;52.550;13.148;2022-08-25T09:31:19;23.80;99.90
6210;DHT22;3138;52.550;13.148;2022-08-25T09:33:47;23.90;99.90
6210;DHT22;3138;52.550;13.148;2022-08-25T09:36:15;23.80;99.90
6210;DHT22;3138;52.550;13.148;2022-08-25T09:38:41;24.20;99.90
6210;DHT22;3138;52.550;13.148;2022-08-25T09:41:15;24.00;99.90
6210;DHT22;3138;52.550;13.148;2022-08-25T09:43:43;24.00;99.90
6210;DHT22;3138;52.550;13.148;2022-08-25T09:46:27;23.80;99.90
6210;DHT22;3138;52.550;13.148;2022-08-25T09:48:56;24.10;99.90
6210;DHT22;3138;52.550;13.148;2022-08-25T09:51:25;23.80;99.90
6210;DHT22;3138;52.550;13.148;2022-08-25T09:53:55;24.10;99.90
6210;DHT22;3138;52.550;13.148;2022-08-25T09:56:25;24.90;99.90
6210;DHT22;3138;52.550;13.148;2022-08-25T09:58:53;24.80;99.90
6210;DHT22;3138;52.550;13.148;2022-08-25T10:01:22;24.80;99.90
6210;DHT22;3138;52.550;13.148;2022-08-25T10:03:59;24.50;99.90
6210;DHT22;3138;52.550;13.148;2022-08-25T10:06:29;24.70;99.90
6210;DHT22;3138;52.550;13.148;2022-08-25T10:09:01;24.60;99.90
6210;DHT22;3138;52.550;13.148;2022-08-25T10:11:34;24.70;99.90
6210;DHT22;3138;52.550;13.148;2022-08-25T10:14:06;24.80;99.90
6210;DHT22;3138;52.550;13.148;2022-08-25T10:16:33;24.90;99.90
6210;DHT22;3138;52.550;13.148;2022-08-25T10:19:06;24.80;99.90
6210;DHT22;3138;52.550;13.148;2022-08-25T10:21:33;24.60;99.90
6210;DHT22;3138;52.550;13.148;2022-08-25T10:24:01;24.90;99.90
6210;DHT22;3138;52.550;13.148;2022-08-25T10:26:37;25.10;99.90
6210;DHT22;3138;52.550;13.148;2022-08-25T10:29:13;24.90;99.90
6210;DHT22;3138;52.550;13.148;2022-08-25T10:31:46;24.80;99.90
6210;DHT22;3138;52.550;13.148;2022-08-25T10:34:36;25.10;99.90
6210;DHT22;3138;52.550;13.148;2022-08-25T10:37:13;25.40;99.90
6210;DHT22;3138;52.550;13.148;2022-08-25T10:39:56;25.00;99.90
6210;DHT22;3138;52.550;13.148;2022-08-25T10:42:34;25.40;99.90
6210;DHT22;3138;52.550;13.148;2022-08-25T10:45:14;25.80;99.90
6210;DHT22;3138;52.550;13.148;2022-08-25T10:48:24;25.70;99.90
6210;DHT22;3138;52.550;13.148;2022-08-25T10:50:57;26.40;99.90
6210;DHT22;3138;52.550;13.148;2022-08-25T10:53:28;26.60;99.90
6210;DHT22;3138;52.550;13.148;2022-08-25T10:56:06;26.60;99.90
6210;DHT22;3138;52.550;13.148;2022-08-25T11:01:43;26.40;99.90
6210;DHT22;3138;52.550;13.148;2022-08-25T11:04:15;26.30;99.90
6210;DHT22;3138;52.550;13.148;2022-08-25T11:06:49;26.40;99.90
6210;DHT22;3138;52.550;13.148;2022-08-25T11:09:22;26.30;99.90
6210;DHT22;3138;52.550;13.148;2022-08-25T11:11:54;26.10;99.90
6210;DHT22;3138;52.550;13.148;2022-08-25T11:14:27;26.00;99.90
6210;DHT22;3138;52.550;13.148;2022-08-25T11:16:59;25.80;99.90
6210;DHT22;3138;52.550;13.148;2022-08-25T11:19:29;25.60;99.90
6210;DHT22;3138;52.550;13.148;2022-08-25T11:22:03;25.70;99.90
6210;DHT22;3138;52.550;13.148;2022-08-25T11:27:23;26.10;99.90
6210;DHT22;3138;52.550;13.148;2022-08-25T11:30:01;25.90;99.90
6210;DHT22;3138;52.550;13.148;2022-08-25T11:32:29;26.00;99.90
6210;DHT22;3138;52.550;13.148;2022-08-25T11:35:00;26.00;99.90
6210;DHT22;3138;52.550;13.148;2022-08-25T11:37:29;25.60;99.90
6210;DHT22;3138;52.550;13.148;2022-08-25T11:40:18;25.50;99.90
6210;DHT22;3138;52.550;13.148;2022-08-25T11:43:00;25.70;99.90
6210;DHT22;3138;52.550;13.148;2022-08-25T11:45:53;26.30;99.90
6210;DHT22;3138;52.550;13.148;2022-08-25T11:48:29;26.50;99.90
6210;DHT22;3138;52.550;13.148;2022-08-25T11:51:03;26.40;99.90
6210;DHT22;3138;52.550;13.148;2022-08-25T11:53:31;26.70;99.90
6210;DHT22;3138;52.550;13.148;2022-08-25T11:56:02;27.30;99.90
6210;DHT22;3138;52.550;13.148;2022-08-25T11:58:39;27.20;99.90
6210;DHT22;3138;52.550;13.148;2022-08-25T12:01:10;27.00;99.90
6210;DHT22;3138;52.550;13.148;2022-08-25T12:03:48;26.60;99.90
6210;DHT22;3138;52.550;13.148;2022-08-25T12:06:19;26.40;99.90
6210;DHT22;3138;52.550;13.148;2022-08-25T12:08:52;26.80;99.90
6210;DHT22;3138;52.550;13.148;2022-08-25T12:14:44;27.50;99.90
6210;DHT22;3138;52.550;13.148;2022-08-25T12:17:39;27.30;99.90
6210;DHT22;3138;52.550;13.148;2022-08-25T12:20:07;27.30;99.90
6210;DHT22;3138;52.550;13.148;2022-08-25T12:22:55;27.60;99.90
6210;DHT22;3138;52.550;13.148;2022-08-25T12:25:41;27.40;99.90
6210;DHT22;3138;52.550;13.148;2022-08-25T12:28:39;27.30;99.90
6210;DHT22;3138;52.550;13.148;2022-08-25T12:31:16;27.40;99.90
6210;DHT22;3138;52.550;13.148;2022-08-25T12:33:55;27.70;99.90
6210;DHT22;3138;52.550;13.148;2022-08-25T12:36:28;27.60;99.90
6210;DHT22;3138;52.550;13.148;2022-08-25T12:39:17;27.60;99.90
6210;DHT22;3138;52.550;13.148;2022-08-25T12:41:54;27.90;99.90
6210;DHT22;3138;52.550;13.148;2022-08-25T12:44:39;28.10;99.70
6210;DHT22;3138;52.550;13.148;2022-08-25T12:47:11;28.40;99.60
6210;DHT22;3138;52.550;13.148;2022-08-25T12:49:40;28.50;98.70
6210;DHT22;3138;52.550;13.148;2022-08-25T12:52:12;28.50;98.70
6210;DHT22;3138;52.550;13.148;2022-08-25T12:54:46;28.30;98.10
6210;DHT22;3138;52.550;13.148;2022-08-25T12:57:27;28.60;98.00
6210;DHT22;3138;52.550;13.148;2022-08-25T13:00:12;28.30;96.30
6210;DHT22;3138;52.550;13.148;2022-08-25T13:03:20;28.40;96.50
6210;DHT22;3138;52.550;13.148;2022-08-25T13:06:07;28.30;96.10
6210;DHT22;3138;52.550;13.148;2022-08-25T13:08:45;28.20;95.40
6210;DHT22;3138;52.550;13.148;2022-08-25T13:11:17;28.10;95.90
6210;DHT22;3138;52.550;13.148;2022-08-25T13:13:49;28.50;96.80
6210;DHT22;3138;52.550;13.148;2022-08-25T13:16:20;28.80;95.60
6210;DHT22;3138;52.550;13.148;2022-08-25T13:18:47;28.70;93.10
6210;DHT22;3138;52.550;13.148;2022-08-25T13:21:17;28.70;95.30
6210;DHT22;3138;52.550;13.148;2022-08-25T13:23:47;29.00;93.50
6210;DHT22;3138;52.550;13.148;2022-08-25T13:26:20;28.90;93.40
6210;DHT22;3138;52.550;13.148;2022-08-25T13:28:51;28.70;94.00
6210;DHT22;3138;52.550;13.148;2022-08-25T13:31:20;28.70;95.00
6210;DHT22;3138;52.550;13.148;2022-08-25T13:33:51;28.30;93.70
6210;DHT22;3138;52.550;13.148;2022-08-25T13:36:20;28.40;93.20
6210;DHT22;3138;52.550;13.148;2022-08-25T13:39:12;28.60;93.10
6210;DHT22;3138;52.550;13.148;2022-08-25T13:41:44;28.50;93.30
6210;DHT22;3138;52.550;13.148;2022-08-25T13:44:12;28.30;92.50
6210;DHT22;3138;52.550;13.148;2022-08-25T13:46:39;28.20;93.60
6210;DHT22;3138;52.550;13.148;2022-08-25T13:49:07;28.20;93.50
6210;DHT22;3138;52.550;13.148;2022-08-25T13:51:37;28.20;93.60
6210;DHT22;3138;52.550;13.148;2022-08-25T13:54:07;28.10;94.30
6210;DHT22;3138;52.550;13.148;2022-08-25T13:56:36;28.00;93.50
6210;DHT22;3138;52.550;13.148;2022-08-25T13:59:15;28.00;94.80
6210;DHT22;3138;52.550;13.148;2022-08-25T14:01:47;28.20;93.40
6210;DHT22;3138;52.550;13.148;2022-08-25T14:04:26;28.70;93.30
6210;DHT22;3138;52.550;13.148;2022-08-25T14:07:14;28.20;92.90
6210;DHT22;3138;52.550;13.148;2022-08-25T14:09:46;28.10;92.50
6210;DHT22;3138;52.550;13.148;2022-08-25T14:12:28;27.70;92.40
6210;DHT22;3138;52.550;13.148;2022-08-25T14:15:06;27.90;93.60
6210;DHT22;3138;52.550;13.148;2022-08-25T14:17:34;28.30;94.90
6210;DHT22;3138;52.550;13.148;2022-08-25T14:20:01;28.50;93.90
6210;DHT22;3138;52.550;13.148;2022-08-25T14:22:30;28.20;93.00
6210;DHT22;3138;52.550;13.148;2022-08-25T14:24:56;28.10;93.20
6210;DHT22;3138;52.550;13.148;2022-08-25T14:27:23;28.30;93.50
6210;DHT22;3138;52.550;13.148;2022-08-25T14:29:50;28.50;92.80
6210;DHT22;3138;52.550;13.148;2022-08-25T14:32:17;28.30;92.50
6210;DHT22;3138;52.550;13.148;2022-08-25T14:34:44;28.00;92.90
6210;DHT22;3138;52.550;13.148;2022-08-25T14:37:13;28.10;93.10
6210;DHT22;3138;52.550;13.148;2022-08-25T14:39:42;28.10;93.60
6210;DHT22;3138;52.550;13.148;2022-08-25T14:42:09;28.00;93.00
6210;DHT22;3138;52.550;13.148;2022-08-25T14:44:36;28.10;94.10
6210;DHT22;3138;52.550;13.148;2022-08-25T14:47:03;27.90;94.10
6210;DHT22;3138;52.550;13.148;2022-08-25T14:49:34;27.60;94.70
6210;DHT22;3138;52.550;13.148;2022-08-25T14:52:06;27.50;95.00
6210;DHT22;3138;52.550;13.148;2022-08-25T14:54:34;27.60;94.40
6210;DHT22;3138;52.550;13.148;2022-08-25T14:57:02;27.60;94.50
6210;DHT22;3138;52.550;13.148;2022-08-25T14:59:29;27.50;94.70
6210;DHT22;3138;52.550;13.148;2022-08-25T15:01:58;27.80;95.40
6210;DHT22;3138;52.550;13.148;2022-08-25T15:04:26;27.70;94.00
6210;DHT22;3138;52.550;13.148;2022-08-25T15:06:56;27.90;94.10
6210;DHT22;3138;52.550;13.148;2022-08-25T15:09:23;27.70;93.70
6210;DHT22;3138;52.550;13.148;2022-08-25T15:11:52;27.80;94.10
6210;DHT22;3138;52.550;13.148;2022-08-25T15:14:22;27.90;93.40
6210;DHT22;3138;52.550;13.148;2022-08-25T15:16:50;27.90;93.40
6210;DHT22;3138;52.550;13.148;2022-08-25T15:19:20;28.00;92.70
6210;DHT22;3138;52.550;13.148;2022-08-25T15:21:47;28.00;92.80
6210;DHT22;3138;52.550;13.148;2022-08-25T15:24:16;28.10;93.50
6210;DHT22;3138;52.550;13.148;2022-08-25T15:26:46;28.00;92.30
6210;DHT22;3138;52.550;13.148;2022-08-25T15:29:15;27.90;92.50
6210;DHT22;3138;52.550;13.148;2022-08-25T15:31:43;27.90;92.40
6210;DHT22;3138;52.550;13.148;2022-08-25T15:34:11;27.60;92.90
6210;DHT22;3138;52.550;13.148;2022-08-25T15:36:38;27.20;93.30
6210;DHT22;3138;52.550;13.148;2022-08-25T15:39:05;27.10;93.40
6210;DHT22;3138;52.550;13.148;2022-08-25T15:41:32;27.00;93.50
6210;DHT22;3138;52.550;13.148;2022-08-25T15:44:01;27.10;93.70
6210;DHT22;3138;52.550;13.148;2022-08-25T15:46:28;27.20;93.30
6210;DHT22;3138;52.550;13.148;2022-08-25T15:48:57;27.30;93.30
6210;DHT22;3138;52.550;13.148;2022-08-25T15:51:24;27.40;93.50
6210;DHT22;3138;52.550;13.148;2022-08-25T15:53:51;27.50;93.80
6210;DHT22;3138;52.550;13.148;2022-08-25T15:56:18;27.30;94.00
6210;DHT22;3138;52.550;13.148;2022-08-25T15:58:46;27.20;93.90
6210;DHT22;3138;52.550;13.148;2022-08-25T16:01:14;27.30;93.70
6210;DHT22;3138;52.550;13.148;2022-08-25T16:03:41;27.20;94.40
6210;DHT22;3138;52.550;13.148;2022-08-25T16:06:09;27.30;93.70
6210;DHT22;3138;52.550;13.148;2022-08-25T16:08:36;27.30;93.90
6210;DHT22;3138;52.550;13.148;2022-08-25T16:11:04;27.30;93.70
6210;DHT22;3138;52.550;13.148;2022-08-25T16:13:31;27.30;94.10
6210;DHT22;3138;52.550;13.148;2022-08-25T16:15:58;27.20;93.70